Similk Beach, Washington
Current Conditions -  °F | °C
As of 12:56 AM on Thursday 27 Nov 2014 (Local Time) from KNUW Reporting Station
Overcast Overcast  
Wind Chill: 59°   Ceiling: 7500
Heat Index: 59°   Visibility: 10mi
Dew Point: 49°   Wind: 29mph
Humidity: 69%   Direction: 150°SSE
Pressure: 29.79"   Gusts: 35mph
Location:  48.4652°N, 122.617°W
Report Text: KNUW 270856Z AUTO 15025G30KT 10SM OVC075 15/09 A2979 RMK AO2 PK WND 14037/0828 SLP092 60000 T01500094 55004 $
Loading
Personal Weather Stations






























Interactive Weather Map New forecast layout! Learn more

10-Day Weather Forecast

Advertisements
Track Severe Weather on mobile